sensor_id;sensor_type;location;lat;lon;timestamp;temperature;humidity
66827;DHT22;53727;45.242;19.796;2022-09-21T10:54:44;384.40;2329.60
66827;DHT22;53727;45.242;19.796;2022-09-21T10:57:15;384.20;2329.60
66827;DHT22;53727;45.242;19.796;2022-09-21T10:59:42;384.00;2329.60
66827;DHT22;53727;45.242;19.796;2022-09-21T11:02:34;384.30;2329.60
66827;DHT22;53727;45.242;19.796;2022-09-21T11:05:14;409.70;2355.20
66827;DHT22;53727;45.242;19.796;2022-09-21T11:07:52;384.70;2329.60
66827;DHT22;53727;45.242;19.796;2022-09-21T11:15:52;384.80;2329.60
66827;DHT22;53727;45.242;19.796;2022-09-21T11:21:38;384.50;2329.60
66827;DHT22;53727;45.242;19.796;2022-09-21T11:24:18;384.40;2329.60
66827;DHT22;53727;45.242;19.796;2022-09-21T11:27:06;409.60;2355.20
66827;DHT22;53727;45.242;19.796;2022-09-21T11:32:26;409.70;2355.20
66827;DHT22;53727;45.242;19.796;2022-09-21T11:40:35;384.60;2329.60
66827;DHT22;53727;45.242;19.796;2022-09-21T11:50:51;384.80;2329.60
66827;DHT22;53727;45.242;19.796;2022-09-21T11:53:33;384.60;2329.60
66827;DHT22;53727;45.242;19.796;2022-09-21T12:04:19;384.60;2329.60
66827;DHT22;53727;45.242;19.796;2022-09-21T12:12:25;384.30;2329.60
66827;DHT22;53727;45.242;19.796;2022-09-21T12:23:25;384.00;2329.60
66827;DHT22;53727;45.242;19.796;2022-09-21T12:25:55;384.20;2329.60
66827;DHT22;53727;45.242;19.796;2022-09-21T12:28:29;384.20;2329.60
66827;DHT22;53727;45.242;19.796;2022-09-21T12:31:00;384.10;2329.60
66827;DHT22;53727;45.242;19.796;2022-09-21T12:33:32;384.10;2329.60
66827;DHT22;53727;45.242;19.796;2022-09-21T12:38:39;384.10;2329.60
66827;DHT22;53727;45.242;19.796;2022-09-21T12:41:13;384.00;2329.60
66827;DHT22;53727;45.242;19.796;2022-09-21T12:43:46;384.00;2329.60
66827;DHT22;53727;45.242;19.796;2022-09-21T12:46:19;384.10;2329.60
66827;DHT22;53727;45.242;19.796;2022-09-21T12:48:45;384.10;2329.60
66827;DHT22;53727;45.242;19.796;2022-09-21T12:51:15;384.10;2329.60
66827;DHT22;53727;45.242;19.796;2022-09-21T12:53:45;384.10;2329.60
66827;DHT22;53727;45.242;19.796;2022-09-21T13:09:21;384.10;2329.60
66827;DHT22;53727;45.242;19.796;2022-09-21T13:11:53;384.10;2329.60
66827;DHT22;53727;45.242;19.796;2022-09-21T13:14:23;384.20;2329.60
66827;DHT22;53727;45.242;19.796;2022-09-21T13:16:58;384.30;2329.60
66827;DHT22;53727;45.242;19.796;2022-09-21T13:19:27;384.20;2329.60
66827;DHT22;53727;45.242;19.796;2022-09-21T13:22:19;384.30;2329.60
66827;DHT22;53727;45.242;19.796;2022-09-21T13:28:07;384.50;2329.60
66827;DHT22;53727;45.242;19.796;2022-09-21T14:21:12;435.30;2355.20
66827;DHT22;53727;45.242;19.796;2022-09-21T14:36:49;384.80;2329.60
66827;DHT22;53727;45.242;19.796;2022-09-21T14:39:37;384.60;2329.60
66827;DHT22;53727;45.242;19.796;2022-09-21T14:42:25;384.30;2329.60
66827;DHT22;53727;45.242;19.796;2022-09-21T14:57:53;359.20;2329.60
66827;DHT22;53727;45.242;19.796;2022-09-21T15:00:38;359.00;2329.60
66827;DHT22;53727;45.242;19.796;2022-09-21T15:27:17;358.70;2329.60
66827;DHT22;53727;45.242;19.796;2022-09-21T15:29:45;358.60;2329.60
66827;DHT22;53727;45.242;19.796;2022-09-21T15:32:40;358.50;2329.60
66827;DHT22;53727;45.242;19.796;2022-09-21T15:37:41;358.50;2329.60
66827;DHT22;53727;45.242;19.796;2022-09-21T15:40:35;358.60;2329.60
66827;DHT22;53727;45.242;19.796;2022-09-21T15:43:19;358.60;2329.60
66827;DHT22;53727;45.242;19.796;2022-09-21T15:45:47;358.60;2329.60
66827;DHT22;53727;45.242;19.796;2022-09-21T15:48:18;358.70;2329.60
66827;DHT22;53727;45.242;19.796;2022-09-21T15:50:49;358.70;2329.60
66827;DHT22;53727;45.242;19.796;2022-09-21T15:53:27;358.70;2329.60
66827;DHT22;53727;45.242;19.796;2022-09-21T15:55:55;358.70;2329.60
66827;DHT22;53727;45.242;19.796;2022-09-21T15:58:32;358.70;2329.60
66827;DHT22;53727;45.242;19.796;2022-09-21T16:01:09;358.60;2329.60
66827;DHT22;53727;45.242;19.796;2022-09-21T16:03:36;358.40;2329.60
66827;DHT22;53727;45.242;19.796;2022-09-21T16:08:49;358.40;2329.60
66827;DHT22;53727;45.242;19.796;2022-09-21T16:14:18;358.60;2329.60
66827;DHT22;53727;45.242;19.796;2022-09-21T16:17:25;358.60;2329.60
66827;DHT22;53727;45.242;19.796;2022-09-21T16:22:30;358.70;2329.60
66827;DHT22;53727;45.242;19.796;2022-09-21T16:25:00;358.70;2329.60
66827;DHT22;53727;45.242;19.796;2022-09-21T16:27:30;358.80;2329.60
66827;DHT22;53727;45.242;19.796;2022-09-21T16:29:58;358.80;2329.60
66827;DHT22;53727;45.242;19.796;2022-09-21T16:32:31;358.70;2329.60
66827;DHT22;53727;45.242;19.796;2022-09-21T16:35:30;358.80;2329.60
66827;DHT22;53727;45.242;19.796;2022-09-21T16:38:03;358.70;2329.60
66827;DHT22;53727;45.242;19.796;2022-09-21T16:40:30;358.50;2329.60
66827;DHT22;53727;45.242;19.796;2022-09-21T16:42:56;358.50;2329.60
66827;DHT22;53727;45.242;19.796;2022-09-21T16:45:26;358.50;2329.60
66827;DHT22;53727;45.242;19.796;2022-09-21T16:47:53;358.60;2329.60
66827;DHT22;53727;45.242;19.796;2022-09-21T16:50:19;358.60;2329.60
66827;DHT22;53727;45.242;19.796;2022-09-21T16:52:45;358.50;2329.60
66827;DHT22;53727;45.242;19.796;2022-09-21T16:55:13;358.50;2329.60
66827;DHT22;53727;45.242;19.796;2022-09-21T16:57:40;358.50;2329.60
66827;DHT22;53727;45.242;19.796;2022-09-21T17:00:19;358.50;2329.60
66827;DHT22;53727;45.242;19.796;2022-09-21T17:02:46;358.60;2329.60
66827;DHT22;53727;45.242;19.796;2022-09-21T17:05:12;358.40;2329.60
66827;DHT22;53727;45.242;19.796;2022-09-21T17:07:55;333.60;2329.60
66827;DHT22;53727;45.242;19.796;2022-09-21T17:10:28;333.50;2329.60
66827;DHT22;53727;45.242;19.796;2022-09-21T17:12:55;333.50;2329.60
66827;DHT22;53727;45.242;19.796;2022-09-21T17:15:21;333.40;2329.60
66827;DHT22;53727;45.242;19.796;2022-09-21T17:17:48;333.30;2329.60
66827;DHT22;53727;45.242;19.796;2022-09-21T17:20:34;333.30;2329.60
66827;DHT22;53727;45.242;19.796;2022-09-21T17:23:00;333.00;2329.60
66827;DHT22;53727;45.242;19.796;2022-09-21T17:25:28;333.10;2329.60
66827;DHT22;53727;45.242;19.796;2022-09-21T17:27:55;333.10;2329.60
66827;DHT22;53727;45.242;19.796;2022-09-21T17:30:24;333.10;2329.60
66827;DHT22;53727;45.242;19.796;2022-09-21T17:32:51;333.10;2329.60
66827;DHT22;53727;45.242;19.796;2022-09-21T17:35:37;333.10;2329.60
66827;DHT22;53727;45.242;19.796;2022-09-21T17:38:04;333.20;2329.60
66827;DHT22;53727;45.242;19.796;2022-09-21T17:40:31;333.20;2329.60
66827;DHT22;53727;45.242;19.796;2022-09-21T17:45:38;333.20;2329.60
66827;DHT22;53727;45.242;19.796;2022-09-21T17:48:12;333.10;2329.60
66827;DHT22;53727;45.242;19.796;2022-09-21T17:50:42;333.10;2329.60
66827;DHT22;53727;45.242;19.796;2022-09-21T17:53:08;333.10;2329.60
66827;DHT22;53727;45.242;19.796;2022-09-21T17:56:55;333.10;2329.60
66827;DHT22;53727;45.242;19.796;2022-09-21T17:59:04;333.10;2329.60
66827;DHT22;53727;45.242;19.796;2022-09-21T18:04:01;332.90;2329.60
66827;DHT22;53727;45.242;19.796;2022-09-21T18:06:28;332.90;2329.60
66827;DHT22;53727;45.242;19.796;2022-09-21T18:08:54;332.90;2329.60
66827;DHT22;53727;45.242;19.796;2022-09-21T18:14:01;332.90;2329.60
66827;DHT22;53727;45.242;19.796;2022-09-21T18:53:02;308.10;2304.00
66827;DHT22;53727;45.242;19.796;2022-09-21T18:55:31;307.80;2304.00
66827;DHT22;53727;45.242;19.796;2022-09-21T18:57:59;307.70;2304.00
66827;DHT22;53727;45.242;19.796;2022-09-21T19:00:27;307.50;2304.00
66827;DHT22;53727;45.242;19.796;2022-09-21T19:03:00;307.40;2304.00
66827;DHT22;53727;45.242;19.796;2022-09-21T19:05:27;307.40;2304.00
66827;DHT22;53727;45.242;19.796;2022-09-21T19:07:54;307.50;2304.00
66827;DHT22;53727;45.242;19.796;2022-09-21T19:10:26;307.50;2304.00
66827;DHT22;53727;45.242;19.796;2022-09-21T19:13:07;307.50;2304.00
66827;DHT22;53727;45.242;19.796;2022-09-21T19:15:45;307.50;2304.00
66827;DHT22;53727;45.242;19.796;2022-09-21T19:18:30;307.50;2304.00
66827;DHT22;53727;45.242;19.796;2022-09-21T19:21:18;307.60;2304.00
66827;DHT22;53727;45.242;19.796;2022-09-21T19:24:05;307.60;2304.00
66827;DHT22;53727;45.242;19.796;2022-09-21T19:30:05;307.60;2304.00
66827;DHT22;53727;45.242;19.796;2022-09-21T19:32:38;307.60;2304.00
66827;DHT22;53727;45.242;19.796;2022-09-21T19:35:29;307.50;2304.00
66827;DHT22;53727;45.242;19.796;2022-09-21T19:37:59;307.50;2304.00
66827;DHT22;53727;45.242;19.796;2022-09-21T19:40:31;307.50;2304.00
66827;DHT22;53727;45.242;19.796;2022-09-21T19:48:39;282.40;2278.40
66827;DHT22;53727;45.242;19.796;2022-09-21T19:51:21;282.40;2278.40
66827;DHT22;53727;45.242;19.796;2022-09-21T19:53:53;282.40;2278.40
66827;DHT22;53727;45.242;19.796;2022-09-21T19:56:45;282.40;2278.40
66827;DHT22;53727;45.242;19.796;2022-09-21T19:59:30;282.40;2278.40
66827;DHT22;53727;45.242;19.796;2022-09-21T20:05:12;282.40;2278.40
66827;DHT22;53727;45.242;19.796;2022-09-21T20:07:50;282.40;2278.40
66827;DHT22;53727;45.242;19.796;2022-09-21T20:13:01;282.40;2278.40
66827;DHT22;53727;45.242;19.796;2022-09-21T20:18:06;282.30;2278.40
66827;DHT22;53727;45.242;19.796;2022-09-21T20:20:34;282.20;2278.40
66827;DHT22;53727;45.242;19.796;2022-09-21T20:23:01;282.20;2278.40
66827;DHT22;53727;45.242;19.796;2022-09-21T20:25:32;282.20;2278.40
66827;DHT22;53727;45.242;19.796;2022-09-21T20:28:00;282.20;2278.40
66827;DHT22;53727;45.242;19.796;2022-09-21T20:30:31;281.90;2278.40
66827;DHT22;53727;45.242;19.796;2022-09-21T20:33:09;282.00;2278.40
66827;DHT22;53727;45.242;19.796;2022-09-21T20:57:39;282.20;2278.40
66827;DHT22;53727;45.242;19.796;2022-09-21T21:00:09;282.00;2278.40
66827;DHT22;53727;45.242;19.796;2022-09-21T21:02:35;282.10;2278.40
66827;DHT22;53727;45.242;19.796;2022-09-21T21:05:02;282.20;2278.40
66827;DHT22;53727;45.242;19.796;2022-09-21T21:07:28;282.00;2278.40
66827;DHT22;53727;45.242;19.796;2022-09-21T21:09:54;281.90;2278.40
66827;DHT22;53727;45.242;19.796;2022-09-21T21:12:21;281.90;2278.40
66827;DHT22;53727;45.242;19.796;2022-09-21T21:14:46;281.90;2278.40
66827;DHT22;53727;45.242;19.796;2022-09-21T21:17:12;281.90;2278.40
66827;DHT22;53727;45.242;19.796;2022-09-21T21:19:41;282.00;2278.40
66827;DHT22;53727;45.242;19.796;2022-09-21T21:22:08;281.90;2278.40
66827;DHT22;53727;45.242;19.796;2022-09-21T21:24:34;281.90;2278.40
66827;DHT22;53727;45.242;19.796;2022-09-21T21:27:11;281.90;2278.40
66827;DHT22;53727;45.242;19.796;2022-09-21T21:29:38;282.00;2278.40
66827;DHT22;53727;45.242;19.796;2022-09-21T21:32:04;282.00;2278.40
66827;DHT22;53727;45.242;19.796;2022-09-21T21:34:30;282.10;2278.40
66827;DHT22;53727;45.242;19.796;2022-09-21T21:36:55;282.30;2278.40
66827;DHT22;53727;45.242;19.796;2022-09-21T21:39:21;282.40;2278.40
66827;DHT22;53727;45.242;19.796;2022-09-21T21:41:47;282.30;2278.40
66827;DHT22;53727;45.242;19.796;2022-09-21T21:44:13;282.30;2278.40
66827;DHT22;53727;45.242;19.796;2022-09-21T21:46:40;282.30;2278.40
66827;DHT22;53727;45.242;19.796;2022-09-21T21:49:05;282.40;2278.40
66827;DHT22;53727;45.242;19.796;2022-09-21T21:51:31;282.40;2278.40
66827;DHT22;53727;45.242;19.796;2022-09-21T21:53:57;282.40;2278.40
66827;DHT22;53727;45.242;19.796;2022-09-21T21:56:24;282.30;2278.40
66827;DHT22;53727;45.242;19.796;2022-09-21T21:58:54;282.30;2278.40
66827;DHT22;53727;45.242;19.796;2022-09-21T22:01:27;282.30;2278.40
66827;DHT22;53727;45.242;19.796;2022-09-21T22:03:58;282.40;2278.40
66827;DHT22;53727;45.242;19.796;2022-09-21T22:06:25;282.40;2278.40
66827;DHT22;53727;45.242;19.796;2022-09-21T22:08:53;282.30;2278.40
66827;DHT22;53727;45.242;19.796;2022-09-21T22:11:19;282.20;2278.40
66827;DHT22;53727;45.242;19.796;2022-09-21T22:13:47;282.20;2278.40
66827;DHT22;53727;45.242;19.796;2022-09-21T22:16:14;282.10;2278.40
66827;DHT22;53727;45.242;19.796;2022-09-21T22:18:41;282.10;2278.40
66827;DHT22;53727;45.242;19.796;2022-09-21T22:21:10;282.10;2278.40
66827;DHT22;53727;45.242;19.796;2022-09-21T22:23:37;282.10;2278.40
66827;DHT22;53727;45.242;19.796;2022-09-21T22:28:34;282.00;2278.40
66827;DHT22;53727;45.242;19.796;2022-09-21T22:31:02;282.10;2278.40
66827;DHT22;53727;45.242;19.796;2022-09-21T22:33:32;282.00;2278.40
66827;DHT22;53727;45.242;19.796;2022-09-21T22:38:32;282.00;2278.40
66827;DHT22;53727;45.242;19.796;2022-09-21T22:43:35;282.00;2278.40
66827;DHT22;53727;45.242;19.796;2022-09-21T22:46:01;282.20;2278.40
66827;DHT22;53727;45.242;19.796;2022-09-21T22:48:27;282.10;2278.40
66827;DHT22;53727;45.242;19.796;2022-09-21T22:50:54;282.20;2278.40
66827;DHT22;53727;45.242;19.796;2022-09-21T22:53:20;282.20;2278.40
66827;DHT22;53727;45.242;19.796;2022-09-21T22:55:46;282.40;2278.40
66827;DHT22;53727;45.242;19.796;2022-09-21T22:58:13;282.30;2278.40
66827;DHT22;53727;45.242;19.796;2022-09-21T23:00:39;282.20;2278.40
66827;DHT22;53727;45.242;19.796;2022-09-21T23:03:06;282.20;2278.40
66827;DHT22;53727;45.242;19.796;2022-09-21T23:05:32;282.30;2278.40
66827;DHT22;53727;45.242;19.796;2022-09-21T23:07:58;282.20;2278.40
66827;DHT22;53727;45.242;19.796;2022-09-21T23:10:25;282.20;2278.40
66827;DHT22;53727;45.242;19.796;2022-09-21T23:12:51;282.10;2278.40
66827;DHT22;53727;45.242;19.796;2022-09-21T23:15:18;282.10;2278.40
66827;DHT22;53727;45.242;19.796;2022-09-21T23:17:44;282.10;2278.40
66827;DHT22;53727;45.242;19.796;2022-09-21T23:20:10;282.00;2278.40
66827;DHT22;53727;45.242;19.796;2022-09-21T23:22:37;282.10;2278.40
66827;DHT22;53727;45.242;19.796;2022-09-21T23:25:04;282.00;2278.40
66827;DHT22;53727;45.242;19.796;2022-09-21T23:27:30;281.90;2278.40
66827;DHT22;53727;45.242;19.796;2022-09-21T23:29:56;282.00;2278.40
66827;DHT22;53727;45.242;19.796;2022-09-21T23:32:23;281.90;2278.40
66827;DHT22;53727;45.242;19.796;2022-09-21T23:34:49;281.80;2278.40
66827;DHT22;53727;45.242;19.796;2022-09-21T23:37:15;281.90;2278.40
66827;DHT22;53727;45.242;19.796;2022-09-21T23:39:40;281.90;2278.40
66827;DHT22;53727;45.242;19.796;2022-09-21T23:42:06;281.90;2278.40
66827;DHT22;53727;45.242;19.796;2022-09-21T23:44:32;282.00;2278.40
66827;DHT22;53727;45.242;19.796;2022-09-21T23:46:58;281.80;2278.40
66827;DHT22;53727;45.242;19.796;2022-09-21T23:49:24;281.70;2278.40
66827;DHT22;53727;45.242;19.796;2022-09-21T23:51:49;281.90;2278.40
66827;DHT22;53727;45.242;19.796;2022-09-21T23:54:15;281.90;2278.40
66827;DHT22;53727;45.242;19.796;2022-09-21T23:56:42;281.90;2278.40
66827;DHT22;53727;45.242;19.796;2022-09-21T23:59:08;281.80;2278.40
